sensor_id;sensor_type;location;lat;lon;timestamp;P1;durP1;ratioP1;P2;durP2;ratioP2
7971;SDS011;4031;49.758;6.120;2023-07-31T00:02:17;2.30;;;1.50;;
7971;SDS011;4031;49.758;6.120;2023-07-31T00:04:43;2.37;;;1.50;;
7971;SDS011;4031;49.758;6.120;2023-07-31T00:07:09;2.30;;;2.10;;
7971;SDS011;4031;49.758;6.120;2023-07-31T00:09:35;2.00;;;1.27;;
7971;SDS011;4031;49.758;6.120;2023-07-31T00:12:01;3.20;;;1.93;;
7971;SDS011;4031;49.758;6.120;2023-07-31T00:14:27;4.40;;;1.80;;
7971;SDS011;4031;49.758;6.120;2023-07-31T00:16:53;2.40;;;1.57;;
7971;SDS011;4031;49.758;6.120;2023-07-31T00:19:18;3.27;;;2.00;;
7971;SDS011;4031;49.758;6.120;2023-07-31T00:21:44;1.93;;;1.63;;
7971;SDS011;4031;49.758;6.120;2023-07-31T00:24:10;2.47;;;1.47;;
7971;SDS011;4031;49.758;6.120;2023-07-31T00:26:36;4.70;;;2.23;;
7971;SDS011;4031;49.758;6.120;2023-07-31T00:29:01;3.33;;;2.00;;
7971;SDS011;4031;49.758;6.120;2023-07-31T00:31:27;3.20;;;2.07;;
7971;SDS011;4031;49.758;6.120;2023-07-31T00:33:53;3.93;;;2.20;;
7971;SDS011;4031;49.758;6.120;2023-07-31T00:36:18;2.30;;;1.50;;
7971;SDS011;4031;49.758;6.120;2023-07-31T00:38:44;3.80;;;2.10;;
7971;SDS011;4031;49.758;6.120;2023-07-31T00:41:10;4.50;;;1.33;;
7971;SDS011;4031;49.758;6.120;2023-07-31T00:43:36;2.60;;;1.90;;
7971;SDS011;4031;49.758;6.120;2023-07-31T00:46:01;3.17;;;1.80;;
7971;SDS011;4031;49.758;6.120;2023-07-31T00:48:27;2.73;;;2.00;;
7971;SDS011;4031;49.758;6.120;2023-07-31T00:50:53;1.80;;;1.60;;
7971;SDS011;4031;49.758;6.120;2023-07-31T00:53:19;5.10;;;1.73;;
7971;SDS011;4031;49.758;6.120;2023-07-31T00:55:45;2.57;;;2.00;;
7971;SDS011;4031;49.758;6.120;2023-07-31T00:58:11;2.17;;;1.70;;
7971;SDS011;4031;49.758;6.120;2023-07-31T01:00:37;2.20;;;1.53;;
7971;SDS011;4031;49.758;6.120;2023-07-31T01:03:02;2.70;;;1.90;;
7971;SDS011;4031;49.758;6.120;2023-07-31T01:05:33;2.13;;;1.53;;
7971;SDS011;4031;49.758;6.120;2023-07-31T01:10:55;4.60;;;2.30;;
7971;SDS011;4031;49.758;6.120;2023-07-31T01:13:27;2.93;;;2.10;;
7971;SDS011;4031;49.758;6.120;2023-07-31T01:15:54;4.87;;;1.70;;
7971;SDS011;4031;49.758;6.120;2023-07-31T01:18:20;2.20;;;1.50;;
7971;SDS011;4031;49.758;6.120;2023-07-31T01:20:46;3.77;;;1.87;;
7971;SDS011;4031;49.758;6.120;2023-07-31T01:27:10;3.90;;;2.23;;
7971;SDS011;4031;49.758;6.120;2023-07-31T01:32:14;2.10;;;1.90;;
7971;SDS011;4031;49.758;6.120;2023-07-31T01:34:43;6.20;;;1.90;;
7971;SDS011;4031;49.758;6.120;2023-07-31T01:37:09;3.27;;;1.40;;
7971;SDS011;4031;49.758;6.120;2023-07-31T01:39:35;2.03;;;1.60;;
7971;SDS011;4031;49.758;6.120;2023-07-31T01:42:01;6.47;;;2.00;;
7971;SDS011;4031;49.758;6.120;2023-07-31T01:44:26;1.90;;;1.60;;
7971;SDS011;4031;49.758;6.120;2023-07-31T01:46:53;3.60;;;2.17;;
7971;SDS011;4031;49.758;6.120;2023-07-31T01:49:18;4.70;;;1.73;;
7971;SDS011;4031;49.758;6.120;2023-07-31T01:51:44;3.27;;;2.07;;
7971;SDS011;4031;49.758;6.120;2023-07-31T01:54:10;4.47;;;2.00;;
7971;SDS011;4031;49.758;6.120;2023-07-31T01:56:36;3.30;;;1.50;;
7971;SDS011;4031;49.758;6.120;2023-07-31T01:59:01;2.47;;;1.77;;
7971;SDS011;4031;49.758;6.120;2023-07-31T02:01:27;4.90;;;1.40;;
7971;SDS011;4031;49.758;6.120;2023-07-31T02:03:53;5.63;;;1.90;;
7971;SDS011;4031;49.758;6.120;2023-07-31T02:06:19;7.40;;;1.67;;
7971;SDS011;4031;49.758;6.120;2023-07-31T02:08:45;1.57;;;1.47;;
7971;SDS011;4031;49.758;6.120;2023-07-31T02:11:10;4.17;;;1.70;;
7971;SDS011;4031;49.758;6.120;2023-07-31T02:13:36;5.93;;;2.20;;
7971;SDS011;4031;49.758;6.120;2023-07-31T02:16:02;3.90;;;1.77;;
7971;SDS011;4031;49.758;6.120;2023-07-31T02:18:27;3.10;;;1.93;;
7971;SDS011;4031;49.758;6.120;2023-07-31T02:20:53;3.63;;;1.70;;
7971;SDS011;4031;49.758;6.120;2023-07-31T02:23:19;3.77;;;1.60;;
7971;SDS011;4031;49.758;6.120;2023-07-31T02:25:45;5.57;;;1.70;;
7971;SDS011;4031;49.758;6.120;2023-07-31T02:28:11;3.67;;;2.33;;
7971;SDS011;4031;49.758;6.120;2023-07-31T02:30:37;3.20;;;1.43;;
7971;SDS011;4031;49.758;6.120;2023-07-31T02:33:03;1.80;;;1.53;;
7971;SDS011;4031;49.758;6.120;2023-07-31T02:35:30;2.60;;;1.60;;
7971;SDS011;4031;49.758;6.120;2023-07-31T02:37:56;4.07;;;2.00;;
7971;SDS011;4031;49.758;6.120;2023-07-31T02:40:21;8.77;;;1.90;;
7971;SDS011;4031;49.758;6.120;2023-07-31T02:42:48;2.80;;;1.80;;
7971;SDS011;4031;49.758;6.120;2023-07-31T02:45:14;3.60;;;1.60;;
7971;SDS011;4031;49.758;6.120;2023-07-31T02:47:39;1.67;;;1.43;;
7971;SDS011;4031;49.758;6.120;2023-07-31T02:50:05;2.17;;;1.70;;
7971;SDS011;4031;49.758;6.120;2023-07-31T02:52:31;4.53;;;1.87;;
7971;SDS011;4031;49.758;6.120;2023-07-31T02:54:57;2.57;;;1.87;;
7971;SDS011;4031;49.758;6.120;2023-07-31T02:57:23;3.03;;;1.67;;
7971;SDS011;4031;49.758;6.120;2023-07-31T02:59:49;3.73;;;2.50;;
7971;SDS011;4031;49.758;6.120;2023-07-31T03:02:15;4.57;;;2.20;;
7971;SDS011;4031;49.758;6.120;2023-07-31T03:04:40;3.97;;;2.20;;
7971;SDS011;4031;49.758;6.120;2023-07-31T03:07:06;4.60;;;2.47;;
7971;SDS011;4031;49.758;6.120;2023-07-31T03:09:32;6.67;;;2.30;;
7971;SDS011;4031;49.758;6.120;2023-07-31T03:11:57;4.10;;;2.53;;
7971;SDS011;4031;49.758;6.120;2023-07-31T03:14:23;3.13;;;1.83;;
7971;SDS011;4031;49.758;6.120;2023-07-31T03:16:51;7.10;;;3.20;;
7971;SDS011;4031;49.758;6.120;2023-07-31T03:19:17;6.23;;;2.40;;
7971;SDS011;4031;49.758;6.120;2023-07-31T03:21:43;4.47;;;1.77;;
7971;SDS011;4031;49.758;6.120;2023-07-31T03:24:08;4.40;;;2.27;;
7971;SDS011;4031;49.758;6.120;2023-07-31T03:26:34;3.13;;;2.27;;
7971;SDS011;4031;49.758;6.120;2023-07-31T03:29:01;5.07;;;2.43;;
7971;SDS011;4031;49.758;6.120;2023-07-31T03:31:27;4.07;;;2.17;;
7971;SDS011;4031;49.758;6.120;2023-07-31T03:33:52;5.30;;;1.70;;
7971;SDS011;4031;49.758;6.120;2023-07-31T03:36:18;2.30;;;2.03;;
7971;SDS011;4031;49.758;6.120;2023-07-31T03:38:44;3.73;;;2.50;;
7971;SDS011;4031;49.758;6.120;2023-07-31T03:41:11;3.83;;;2.43;;
7971;SDS011;4031;49.758;6.120;2023-07-31T03:43:36;4.50;;;2.60;;
7971;SDS011;4031;49.758;6.120;2023-07-31T03:46:02;3.53;;;2.53;;
7971;SDS011;4031;49.758;6.120;2023-07-31T03:48:28;4.43;;;2.10;;
7971;SDS011;4031;49.758;6.120;2023-07-31T03:50:54;5.60;;;1.90;;
7971;SDS011;4031;49.758;6.120;2023-07-31T03:53:20;3.00;;;1.93;;
7971;SDS011;4031;49.758;6.120;2023-07-31T03:55:46;3.73;;;2.00;;
7971;SDS011;4031;49.758;6.120;2023-07-31T03:58:12;4.13;;;2.30;;
7971;SDS011;4031;49.758;6.120;2023-07-31T04:00:39;4.83;;;1.90;;
7971;SDS011;4031;49.758;6.120;2023-07-31T04:03:06;5.53;;;2.67;;
7971;SDS011;4031;49.758;6.120;2023-07-31T04:05:32;3.17;;;2.83;;
7971;SDS011;4031;49.758;6.120;2023-07-31T04:07:58;2.80;;;2.07;;
7971;SDS011;4031;49.758;6.120;2023-07-31T04:10:24;4.00;;;2.47;;
7971;SDS011;4031;49.758;6.120;2023-07-31T04:12:49;4.23;;;2.27;;
7971;SDS011;4031;49.758;6.120;2023-07-31T04:15:15;4.47;;;1.67;;
7971;SDS011;4031;49.758;6.120;2023-07-31T04:17:41;3.37;;;1.93;;
7971;SDS011;4031;49.758;6.120;2023-07-31T04:20:07;2.90;;;2.17;;
7971;SDS011;4031;49.758;6.120;2023-07-31T04:22:33;7.60;;;3.00;;
7971;SDS011;4031;49.758;6.120;2023-07-31T04:24:59;4.33;;;2.13;;
7971;SDS011;4031;49.758;6.120;2023-07-31T04:27:24;6.00;;;2.40;;
7971;SDS011;4031;49.758;6.120;2023-07-31T04:29:50;6.10;;;2.60;;
7971;SDS011;4031;49.758;6.120;2023-07-31T04:32:16;4.83;;;2.47;;
7971;SDS011;4031;49.758;6.120;2023-07-31T04:34:42;4.30;;;2.30;;
7971;SDS011;4031;49.758;6.120;2023-07-31T04:37:08;4.07;;;2.37;;
7971;SDS011;4031;49.758;6.120;2023-07-31T04:39:34;2.47;;;2.10;;
7971;SDS011;4031;49.758;6.120;2023-07-31T04:42:00;6.80;;;2.60;;
7971;SDS011;4031;49.758;6.120;2023-07-31T04:44:25;4.83;;;2.53;;
7971;SDS011;4031;49.758;6.120;2023-07-31T04:46:51;4.43;;;2.23;;
7971;SDS011;4031;49.758;6.120;2023-07-31T04:49:17;4.67;;;2.90;;
7971;SDS011;4031;49.758;6.120;2023-07-31T04:51:44;2.90;;;1.80;;
7971;SDS011;4031;49.758;6.120;2023-07-31T04:54:09;6.20;;;2.77;;
7971;SDS011;4031;49.758;6.120;2023-07-31T04:56:37;3.93;;;2.23;;
7971;SDS011;4031;49.758;6.120;2023-07-31T04:59:03;4.80;;;2.50;;
7971;SDS011;4031;49.758;6.120;2023-07-31T05:01:29;3.90;;;2.10;;
7971;SDS011;4031;49.758;6.120;2023-07-31T05:03:54;2.97;;;2.27;;
7971;SDS011;4031;49.758;6.120;2023-07-31T05:06:20;3.67;;;1.77;;
7971;SDS011;4031;49.758;6.120;2023-07-31T05:08:46;3.53;;;1.90;;
7971;SDS011;4031;49.758;6.120;2023-07-31T05:11:12;5.57;;;2.70;;
7971;SDS011;4031;49.758;6.120;2023-07-31T05:13:37;4.23;;;2.10;;
7971;SDS011;4031;49.758;6.120;2023-07-31T05:16:03;3.67;;;1.83;;
7971;SDS011;4031;49.758;6.120;2023-07-31T05:18:29;4.50;;;1.90;;
7971;SDS011;4031;49.758;6.120;2023-07-31T05:20:54;4.40;;;2.13;;
7971;SDS011;4031;49.758;6.120;2023-07-31T05:23:20;5.67;;;2.50;;
7971;SDS011;4031;49.758;6.120;2023-07-31T05:25:46;3.40;;;2.77;;
7971;SDS011;4031;49.758;6.120;2023-07-31T05:28:12;3.20;;;2.53;;
7971;SDS011;4031;49.758;6.120;2023-07-31T05:30:38;3.50;;;1.97;;
7971;SDS011;4031;49.758;6.120;2023-07-31T05:33:03;4.37;;;2.47;;
7971;SDS011;4031;49.758;6.120;2023-07-31T05:35:29;2.80;;;2.27;;
7971;SDS011;4031;49.758;6.120;2023-07-31T05:37:55;4.40;;;2.40;;
7971;SDS011;4031;49.758;6.120;2023-07-31T05:40:21;4.20;;;2.30;;
7971;SDS011;4031;49.758;6.120;2023-07-31T05:42:46;5.50;;;2.30;;
7971;SDS011;4031;49.758;6.120;2023-07-31T05:45:12;4.50;;;2.27;;
7971;SDS011;4031;49.758;6.120;2023-07-31T05:47:38;3.23;;;2.17;;
7971;SDS011;4031;49.758;6.120;2023-07-31T05:50:04;4.97;;;2.23;;
7971;SDS011;4031;49.758;6.120;2023-07-31T05:52:30;4.80;;;2.00;;
7971;SDS011;4031;49.758;6.120;2023-07-31T05:54:56;4.90;;;2.20;;
7971;SDS011;4031;49.758;6.120;2023-07-31T05:57:22;2.00;;;1.90;;
7971;SDS011;4031;49.758;6.120;2023-07-31T05:59:48;3.93;;;2.47;;
7971;SDS011;4031;49.758;6.120;2023-07-31T06:02:13;3.63;;;1.93;;
7971;SDS011;4031;49.758;6.120;2023-07-31T06:04:39;2.80;;;2.10;;
7971;SDS011;4031;49.758;6.120;2023-07-31T06:07:05;2.73;;;2.40;;
7971;SDS011;4031;49.758;6.120;2023-07-31T06:09:30;7.83;;;2.50;;
7971;SDS011;4031;49.758;6.120;2023-07-31T06:11:56;2.20;;;1.60;;
7971;SDS011;4031;49.758;6.120;2023-07-31T06:14:22;3.87;;;2.03;;
7971;SDS011;4031;49.758;6.120;2023-07-31T06:16:48;2.40;;;1.57;;
7971;SDS011;4031;49.758;6.120;2023-07-31T06:19:13;5.70;;;2.10;;
7971;SDS011;4031;49.758;6.120;2023-07-31T06:21:39;3.50;;;2.27;;
7971;SDS011;4031;49.758;6.120;2023-07-31T06:24:07;4.03;;;2.00;;
7971;SDS011;4031;49.758;6.120;2023-07-31T06:26:33;2.10;;;1.47;;
7971;SDS011;4031;49.758;6.120;2023-07-31T06:28:58;1.97;;;1.37;;
7971;SDS011;4031;49.758;6.120;2023-07-31T06:31:24;5.43;;;2.30;;
7971;SDS011;4031;49.758;6.120;2023-07-31T06:33:51;3.30;;;1.50;;
7971;SDS011;4031;49.758;6.120;2023-07-31T06:36:17;8.33;;;2.03;;
7971;SDS011;4031;49.758;6.120;2023-07-31T06:38:43;2.83;;;1.90;;
7971;SDS011;4031;49.758;6.120;2023-07-31T06:41:09;2.57;;;2.00;;
7971;SDS011;4031;49.758;6.120;2023-07-31T06:43:35;3.13;;;1.40;;
7971;SDS011;4031;49.758;6.120;2023-07-31T06:46:05;1.80;;;1.70;;
7971;SDS011;4031;49.758;6.120;2023-07-31T06:48:32;3.53;;;2.10;;
7971;SDS011;4031;49.758;6.120;2023-07-31T06:51:02;3.03;;;1.50;;
7971;SDS011;4031;49.758;6.120;2023-07-31T06:53:28;6.13;;;2.00;;
7971;SDS011;4031;49.758;6.120;2023-07-31T06:55:54;6.80;;;2.63;;
7971;SDS011;4031;49.758;6.120;2023-07-31T06:58:19;2.90;;;1.47;;
7971;SDS011;4031;49.758;6.120;2023-07-31T07:00:45;4.70;;;2.23;;
7971;SDS011;4031;49.758;6.120;2023-07-31T07:03:11;4.23;;;1.70;;
7971;SDS011;4031;49.758;6.120;2023-07-31T07:05:39;5.20;;;2.10;;
7971;SDS011;4031;49.758;6.120;2023-07-31T07:08:05;4.80;;;2.10;;
7971;SDS011;4031;49.758;6.120;2023-07-31T07:10:31;1.83;;;1.50;;
7971;SDS011;4031;49.758;6.120;2023-07-31T07:12:57;3.47;;;1.90;;
7971;SDS011;4031;49.758;6.120;2023-07-31T07:15:22;4.93;;;2.03;;
7971;SDS011;4031;49.758;6.120;2023-07-31T07:17:48;6.70;;;2.10;;
7971;SDS011;4031;49.758;6.120;2023-07-31T07:20:14;3.07;;;1.83;;
7971;SDS011;4031;49.758;6.120;2023-07-31T07:22:40;3.00;;;1.50;;
7971;SDS011;4031;49.758;6.120;2023-07-31T07:25:08;1.77;;;1.57;;
7971;SDS011;4031;49.758;6.120;2023-07-31T07:27:34;2.03;;;1.60;;
7971;SDS011;4031;49.758;6.120;2023-07-31T07:30:00;3.10;;;1.90;;
7971;SDS011;4031;49.758;6.120;2023-07-31T07:32:26;3.17;;;1.97;;
7971;SDS011;4031;49.758;6.120;2023-07-31T07:34:51;2.37;;;1.87;;
7971;SDS011;4031;49.758;6.120;2023-07-31T07:37:17;3.23;;;1.60;;
7971;SDS011;4031;49.758;6.120;2023-07-31T07:39:43;4.23;;;2.17;;
7971;SDS011;4031;49.758;6.120;2023-07-31T07:42:09;2.77;;;1.70;;
7971;SDS011;4031;49.758;6.120;2023-07-31T07:44:35;4.37;;;2.20;;
7971;SDS011;4031;49.758;6.120;2023-07-31T07:47:01;4.07;;;2.23;;
7971;SDS011;4031;49.758;6.120;2023-07-31T07:49:27;3.30;;;1.67;;
7971;SDS011;4031;49.758;6.120;2023-07-31T07:51:52;3.83;;;1.87;;
7971;SDS011;4031;49.758;6.120;2023-07-31T07:54:18;3.63;;;2.03;;
7971;SDS011;4031;49.758;6.120;2023-07-31T07:56:46;3.57;;;2.07;;
7971;SDS011;4031;49.758;6.120;2023-07-31T07:59:11;2.30;;;1.67;;
7971;SDS011;4031;49.758;6.120;2023-07-31T08:01:37;2.87;;;1.60;;
7971;SDS011;4031;49.758;6.120;2023-07-31T08:04:03;4.40;;;1.43;;
7971;SDS011;4031;49.758;6.120;2023-07-31T08:06:28;7.10;;;1.60;;
7971;SDS011;4031;49.758;6.120;2023-07-31T08:08:55;7.00;;;1.67;;
7971;SDS011;4031;49.758;6.120;2023-07-31T08:11:21;4.73;;;1.70;;
7971;SDS011;4031;49.758;6.120;2023-07-31T08:13:48;4.30;;;1.63;;
7971;SDS011;4031;49.758;6.120;2023-07-31T08:16:14;3.60;;;1.73;;
7971;SDS011;4031;49.758;6.120;2023-07-31T08:18:40;2.80;;;1.67;;
7971;SDS011;4031;49.758;6.120;2023-07-31T08:21:07;8.63;;;1.70;;
7971;SDS011;4031;49.758;6.120;2023-07-31T08:23:33;1.80;;;1.43;;
7971;SDS011;4031;49.758;6.120;2023-07-31T08:25:59;2.87;;;1.90;;
7971;SDS011;4031;49.758;6.120;2023-07-31T08:28:25;5.43;;;1.43;;
7971;SDS011;4031;49.758;6.120;2023-07-31T08:30:50;2.43;;;1.40;;
7971;SDS011;4031;49.758;6.120;2023-07-31T08:33:16;3.70;;;1.20;;
7971;SDS011;4031;49.758;6.120;2023-07-31T08:35:42;3.50;;;1.53;;
7971;SDS011;4031;49.758;6.120;2023-07-31T08:38:07;1.50;;;1.40;;
7971;SDS011;4031;49.758;6.120;2023-07-31T08:40:35;2.63;;;1.40;;
7971;SDS011;4031;49.758;6.120;2023-07-31T08:43:03;2.80;;;1.80;;
7971;SDS011;4031;49.758;6.120;2023-07-31T08:45:29;4.33;;;1.63;;
7971;SDS011;4031;49.758;6.120;2023-07-31T08:47:56;1.50;;;1.40;;
7971;SDS011;4031;49.758;6.120;2023-07-31T08:50:22;2.03;;;1.40;;
7971;SDS011;4031;49.758;6.120;2023-07-31T08:52:49;3.17;;;1.60;;
7971;SDS011;4031;49.758;6.120;2023-07-31T08:55:16;2.13;;;1.33;;
7971;SDS011;4031;49.758;6.120;2023-07-31T08:57:42;1.50;;;1.30;;
7971;SDS011;4031;49.758;6.120;2023-07-31T09:00:09;6.03;;;1.60;;
7971;SDS011;4031;49.758;6.120;2023-07-31T09:02:46;4.60;;;1.63;;
7971;SDS011;4031;49.758;6.120;2023-07-31T09:05:28;1.87;;;1.50;;
7971;SDS011;4031;49.758;6.120;2023-07-31T09:07:56;2.33;;;1.20;;
7971;SDS011;4031;49.758;6.120;2023-07-31T09:10:22;1.87;;;1.17;;
7971;SDS011;4031;49.758;6.120;2023-07-31T09:12:49;2.17;;;1.37;;
7971;SDS011;4031;49.758;6.120;2023-07-31T09:15:17;2.30;;;1.40;;
7971;SDS011;4031;49.758;6.120;2023-07-31T09:17:43;2.73;;;1.70;;
7971;SDS011;4031;49.758;6.120;2023-07-31T09:20:12;1.67;;;1.57;;
7971;SDS011;4031;49.758;6.120;2023-07-31T09:22:43;3.90;;;1.80;;
7971;SDS011;4031;49.758;6.120;2023-07-31T09:30:21;2.73;;;1.40;;
7971;SDS011;4031;49.758;6.120;2023-07-31T09:32:47;3.20;;;1.37;;
7971;SDS011;4031;49.758;6.120;2023-07-31T09:35:22;1.43;;;1.10;;
7971;SDS011;4031;49.758;6.120;2023-07-31T09:37:55;2.67;;;1.20;;
7971;SDS011;4031;49.758;6.120;2023-07-31T09:40:29;3.67;;;1.50;;
7971;SDS011;4031;49.758;6.120;2023-07-31T09:43:00;2.63;;;1.60;;
7971;SDS011;4031;49.758;6.120;2023-07-31T09:45:29;2.63;;;1.23;;
7971;SDS011;4031;49.758;6.120;2023-07-31T09:47:59;1.07;;;0.97;;
7971;SDS011;4031;49.758;6.120;2023-07-31T09:50:24;1.57;;;1.17;;
7971;SDS011;4031;49.758;6.120;2023-07-31T09:52:51;2.43;;;1.20;;
7971;SDS011;4031;49.758;6.120;2023-07-31T09:55:17;1.70;;;1.10;;
7971;SDS011;4031;49.758;6.120;2023-07-31T09:57:45;2.17;;;1.67;;
7971;SDS011;4031;49.758;6.120;2023-07-31T10:00:13;1.60;;;1.07;;
7971;SDS011;4031;49.758;6.120;2023-07-31T10:02:44;1.67;;;1.57;;
7971;SDS011;4031;49.758;6.120;2023-07-31T10:05:12;1.93;;;1.80;;
7971;SDS011;4031;49.758;6.120;2023-07-31T10:07:45;1.73;;;1.40;;
7971;SDS011;4031;49.758;6.120;2023-07-31T10:10:20;1.93;;;1.73;;
7971;SDS011;4031;49.758;6.120;2023-07-31T10:12:50;3.73;;;2.10;;
7971;SDS011;4031;49.758;6.120;2023-07-31T10:15:18;5.70;;;1.73;;
7971;SDS011;4031;49.758;6.120;2023-07-31T10:17:46;4.00;;;1.67;;
7971;SDS011;4031;49.758;6.120;2023-07-31T10:20:14;2.40;;;1.50;;
7971;SDS011;4031;49.758;6.120;2023-07-31T10:22:43;1.43;;;1.27;;
7971;SDS011;4031;49.758;6.120;2023-07-31T10:25:12;2.43;;;1.60;;
7971;SDS011;4031;49.758;6.120;2023-07-31T10:27:40;2.87;;;1.50;;
7971;SDS011;4031;49.758;6.120;2023-07-31T10:30:07;3.60;;;1.40;;
7971;SDS011;4031;49.758;6.120;2023-07-31T10:32:37;1.80;;;1.50;;
7971;SDS011;4031;49.758;6.120;2023-07-31T10:35:06;2.83;;;1.50;;
7971;SDS011;4031;49.758;6.120;2023-07-31T10:37:37;2.17;;;1.20;;
7971;SDS011;4031;49.758;6.120;2023-07-31T10:40:10;1.83;;;1.40;;
7971;SDS011;4031;49.758;6.120;2023-07-31T10:42:51;1.63;;;1.40;;
7971;SDS011;4031;49.758;6.120;2023-07-31T10:45:32;2.17;;;1.70;;
7971;SDS011;4031;49.758;6.120;2023-07-31T10:47:59;1.80;;;1.13;;
7971;SDS011;4031;49.758;6.120;2023-07-31T10:50:26;3.30;;;1.27;;
7971;SDS011;4031;49.758;6.120;2023-07-31T10:52:53;2.93;;;1.90;;
7971;SDS011;4031;49.758;6.120;2023-07-31T10:58:06;1.73;;;1.20;;
7971;SDS011;4031;49.758;6.120;2023-07-31T11:00:34;4.17;;;2.00;;
7971;SDS011;4031;49.758;6.120;2023-07-31T11:03:15;2.90;;;1.67;;
7971;SDS011;4031;49.758;6.120;2023-07-31T11:05:50;1.93;;;1.60;;
7971;SDS011;4031;49.758;6.120;2023-07-31T11:08:22;2.17;;;1.20;;
7971;SDS011;4031;49.758;6.120;2023-07-31T11:13:49;1.63;;;1.50;;
7971;SDS011;4031;49.758;6.120;2023-07-31T11:16:24;2.37;;;1.43;;
7971;SDS011;4031;49.758;6.120;2023-07-31T11:18:50;2.23;;;1.93;;
7971;SDS011;4031;49.758;6.120;2023-07-31T11:21:19;2.57;;;1.60;;
7971;SDS011;4031;49.758;6.120;2023-07-31T11:23:50;4.33;;;2.10;;
7971;SDS011;4031;49.758;6.120;2023-07-31T11:26:18;3.70;;;1.90;;
7971;SDS011;4031;49.758;6.120;2023-07-31T11:28:48;2.23;;;1.50;;
7971;SDS011;4031;49.758;6.120;2023-07-31T11:31:15;6.30;;;1.90;;
7971;SDS011;4031;49.758;6.120;2023-07-31T11:33:45;1.77;;;1.67;;
7971;SDS011;4031;49.758;6.120;2023-07-31T11:36:14;2.10;;;1.90;;
7971;SDS011;4031;49.758;6.120;2023-07-31T11:38:42;1.80;;;1.70;;
7971;SDS011;4031;49.758;6.120;2023-07-31T11:41:07;2.47;;;2.07;;
7971;SDS011;4031;49.758;6.120;2023-07-31T11:43:33;2.20;;;1.80;;
7971;SDS011;4031;49.758;6.120;2023-07-31T11:46:01;2.50;;;1.60;;
7971;SDS011;4031;49.758;6.120;2023-07-31T11:50:59;2.40;;;1.67;;
7971;SDS011;4031;49.758;6.120;2023-07-31T11:53:35;2.20;;;1.97;;
7971;SDS011;4031;49.758;6.120;2023-07-31T11:56:05;1.93;;;1.27;;
7971;SDS011;4031;49.758;6.120;2023-07-31T11:58:33;1.50;;;1.33;;
7971;SDS011;4031;49.758;6.120;2023-07-31T12:01:00;2.53;;;1.40;;
7971;SDS011;4031;49.758;6.120;2023-07-31T12:03:26;2.40;;;1.40;;
7971;SDS011;4031;49.758;6.120;2023-07-31T12:05:55;2.50;;;2.00;;
7971;SDS011;4031;49.758;6.120;2023-07-31T12:08:22;2.37;;;1.83;;
7971;SDS011;4031;49.758;6.120;2023-07-31T12:10:53;4.00;;;1.40;;
7971;SDS011;4031;49.758;6.120;2023-07-31T12:13:23;2.10;;;1.27;;
7971;SDS011;4031;49.758;6.120;2023-07-31T12:15:54;1.90;;;1.03;;
7971;SDS011;4031;49.758;6.120;2023-07-31T12:18:27;2.00;;;1.00;;
7971;SDS011;4031;49.758;6.120;2023-07-31T12:23:26;2.57;;;1.50;;
7971;SDS011;4031;49.758;6.120;2023-07-31T12:28:40;2.10;;;1.87;;
7971;SDS011;4031;49.758;6.120;2023-07-31T12:31:08;3.53;;;1.70;;
7971;SDS011;4031;49.758;6.120;2023-07-31T12:33:37;3.70;;;2.00;;
7971;SDS011;4031;49.758;6.120;2023-07-31T12:36:08;4.40;;;1.87;;
7971;SDS011;4031;49.758;6.120;2023-07-31T12:38:40;2.70;;;1.77;;
7971;SDS011;4031;49.758;6.120;2023-07-31T12:41:06;2.90;;;1.80;;
7971;SDS011;4031;49.758;6.120;2023-07-31T12:43:32;2.60;;;1.97;;
7971;SDS011;4031;49.758;6.120;2023-07-31T12:46:02;3.30;;;1.33;;
7971;SDS011;4031;49.758;6.120;2023-07-31T12:48:28;3.07;;;2.07;;
7971;SDS011;4031;49.758;6.120;2023-07-31T12:50:54;2.60;;;2.00;;
7971;SDS011;4031;49.758;6.120;2023-07-31T12:53:19;4.07;;;1.80;;
7971;SDS011;4031;49.758;6.120;2023-07-31T12:55:46;3.13;;;2.13;;
7971;SDS011;4031;49.758;6.120;2023-07-31T12:58:12;4.40;;;2.23;;
7971;SDS011;4031;49.758;6.120;2023-07-31T13:00:38;6.70;;;2.80;;
7971;SDS011;4031;49.758;6.120;2023-07-31T13:03:03;4.27;;;2.30;;
7971;SDS011;4031;49.758;6.120;2023-07-31T13:05:29;2.47;;;1.90;;
7971;SDS011;4031;49.758;6.120;2023-07-31T13:07:55;2.50;;;1.97;;
7971;SDS011;4031;49.758;6.120;2023-07-31T13:10:21;3.70;;;2.37;;
7971;SDS011;4031;49.758;6.120;2023-07-31T13:12:48;3.13;;;2.53;;
7971;SDS011;4031;49.758;6.120;2023-07-31T13:15:14;4.70;;;2.67;;
7971;SDS011;4031;49.758;6.120;2023-07-31T13:17:40;4.20;;;2.10;;
7971;SDS011;4031;49.758;6.120;2023-07-31T13:20:06;4.43;;;2.20;;
7971;SDS011;4031;49.758;6.120;2023-07-31T13:22:32;4.03;;;2.40;;
7971;SDS011;4031;49.758;6.120;2023-07-31T13:24:58;5.80;;;2.33;;
7971;SDS011;4031;49.758;6.120;2023-07-31T13:27:24;6.43;;;2.83;;
7971;SDS011;4031;49.758;6.120;2023-07-31T13:29:50;3.10;;;2.00;;
7971;SDS011;4031;49.758;6.120;2023-07-31T13:32:17;5.00;;;2.60;;
7971;SDS011;4031;49.758;6.120;2023-07-31T13:34:45;5.60;;;2.47;;
7971;SDS011;4031;49.758;6.120;2023-07-31T13:37:11;5.20;;;2.80;;
7971;SDS011;4031;49.758;6.120;2023-07-31T13:39:37;4.07;;;2.60;;
7971;SDS011;4031;49.758;6.120;2023-07-31T13:42:03;3.97;;;2.70;;
7971;SDS011;4031;49.758;6.120;2023-07-31T13:44:36;3.37;;;2.70;;
7971;SDS011;4031;49.758;6.120;2023-07-31T13:47:02;6.10;;;2.63;;
7971;SDS011;4031;49.758;6.120;2023-07-31T13:49:29;2.37;;;2.17;;
7971;SDS011;4031;49.758;6.120;2023-07-31T13:51:55;1.87;;;1.70;;
7971;SDS011;4031;49.758;6.120;2023-07-31T13:54:25;3.43;;;2.37;;
7971;SDS011;4031;49.758;6.120;2023-07-31T13:56:51;2.60;;;2.40;;
7971;SDS011;4031;49.758;6.120;2023-07-31T13:59:17;3.00;;;2.53;;
7971;SDS011;4031;49.758;6.120;2023-07-31T14:01:43;3.77;;;2.37;;
7971;SDS011;4031;49.758;6.120;2023-07-31T14:04:09;3.10;;;2.60;;
7971;SDS011;4031;49.758;6.120;2023-07-31T14:06:36;3.80;;;2.73;;
7971;SDS011;4031;49.758;6.120;2023-07-31T14:09:02;3.80;;;2.17;;
7971;SDS011;4031;49.758;6.120;2023-07-31T14:11:28;3.07;;;2.23;;
7971;SDS011;4031;49.758;6.120;2023-07-31T14:13:55;5.73;;;2.83;;
7971;SDS011;4031;49.758;6.120;2023-07-31T14:16:21;5.43;;;2.67;;
7971;SDS011;4031;49.758;6.120;2023-07-31T14:18:47;7.03;;;3.13;;
7971;SDS011;4031;49.758;6.120;2023-07-31T14:21:13;3.73;;;2.63;;
7971;SDS011;4031;49.758;6.120;2023-07-31T14:23:39;5.50;;;2.53;;
7971;SDS011;4031;49.758;6.120;2023-07-31T14:26:05;3.67;;;2.50;;
7971;SDS011;4031;49.758;6.120;2023-07-31T14:28:31;5.20;;;2.97;;
7971;SDS011;4031;49.758;6.120;2023-07-31T14:30:57;6.07;;;2.93;;
7971;SDS011;4031;49.758;6.120;2023-07-31T14:33:23;8.97;;;2.60;;
7971;SDS011;4031;49.758;6.120;2023-07-31T14:35:49;3.53;;;2.53;;
7971;SDS011;4031;49.758;6.120;2023-07-31T14:38:15;3.50;;;2.43;;
7971;SDS011;4031;49.758;6.120;2023-07-31T14:40:41;3.23;;;2.60;;
7971;SDS011;4031;49.758;6.120;2023-07-31T14:43:06;3.93;;;3.00;;
7971;SDS011;4031;49.758;6.120;2023-07-31T14:45:32;3.97;;;3.00;;
7971;SDS011;4031;49.758;6.120;2023-07-31T14:47:58;4.93;;;3.00;;
7971;SDS011;4031;49.758;6.120;2023-07-31T14:50:24;6.30;;;3.20;;
7971;SDS011;4031;49.758;6.120;2023-07-31T14:52:51;6.57;;;3.10;;
7971;SDS011;4031;49.758;6.120;2023-07-31T14:55:17;3.90;;;2.67;;
7971;SDS011;4031;49.758;6.120;2023-07-31T14:57:43;7.80;;;3.17;;
7971;SDS011;4031;49.758;6.120;2023-07-31T15:00:09;4.43;;;2.67;;
7971;SDS011;4031;49.758;6.120;2023-07-31T15:02:38;6.63;;;2.90;;
7971;SDS011;4031;49.758;6.120;2023-07-31T15:05:05;4.47;;;2.70;;
7971;SDS011;4031;49.758;6.120;2023-07-31T15:07:32;7.13;;;2.83;;
7971;SDS011;4031;49.758;6.120;2023-07-31T15:09:58;5.10;;;3.30;;
7971;SDS011;4031;49.758;6.120;2023-07-31T15:12:24;4.57;;;2.90;;
7971;SDS011;4031;49.758;6.120;2023-07-31T15:14:51;10.37;;;3.73;;
7971;SDS011;4031;49.758;6.120;2023-07-31T15:17:17;5.17;;;2.87;;
7971;SDS011;4031;49.758;6.120;2023-07-31T15:19:43;9.27;;;3.60;;
7971;SDS011;4031;49.758;6.120;2023-07-31T15:22:08;12.73;;;3.10;;
7971;SDS011;4031;49.758;6.120;2023-07-31T15:24:34;4.73;;;3.07;;
7971;SDS011;4031;49.758;6.120;2023-07-31T15:27:00;5.23;;;3.13;;
7971;SDS011;4031;49.758;6.120;2023-07-31T15:29:27;6.10;;;3.00;;
7971;SDS011;4031;49.758;6.120;2023-07-31T15:31:54;7.30;;;3.00;;
7971;SDS011;4031;49.758;6.120;2023-07-31T15:34:20;8.33;;;4.17;;
7971;SDS011;4031;49.758;6.120;2023-07-31T15:36:46;4.30;;;3.70;;
7971;SDS011;4031;49.758;6.120;2023-07-31T15:39:12;9.57;;;4.40;;
7971;SDS011;4031;49.758;6.120;2023-07-31T15:41:38;7.33;;;3.33;;